Time;durP1;ratioP1;P1;durP2;ratioP2;P2;SDS_P1;SDS_P2;PMS_P1;PMS_P2;Temp;Humidity;BMP_temperature;BMP_pressure;BME280_temperature;BME280_humidity;BME280_pressure;Samples;Min_cycle;Max_cycle;Signal;HPM_P1;HPM_P2
2023/12/17 00:01:01;;;;;;;6.32;5.93;;;13.90;99.90;;;;;;5080794;28;20040;-89
2023/12/17 00:03:27;;;;;;;6.38;5.97;;;13.90;99.90;;;;;;5084154;27;20887;-88
2023/12/17 00:05:53;;;;;;;6.55;6.15;;;13.80;99.90;;;;;;5082689;28;20052;-88
2023/12/17 00:08:21;;;;;;;6.20;5.80;;;13.80;99.90;;;;;;5081757;28;20043;-88
2023/12/17 00:10:47;;;;;;;6.50;6.10;;;13.80;99.90;;;;;;5059753;28;20055;-88
2023/12/17 00:13:13;;;;;;;6.55;6.15;;;13.80;99.90;;;;;;5086626;28;20061;-90
2023/12/17 00:15:40;;;;;;;6.53;6.13;;;13.90;99.90;;;;;;5079421;28;20048;-88
2023/12/17 00:18:06;;;;;;;6.43;6.03;;;13.80;99.90;;;;;;5081025;27;20050;-89
2023/12/17 00:20:32;;;;;;;6.70;6.30;;;13.90;99.90;;;;;;5068172;28;20040;-88
2023/12/17 00:22:58;;;;;;;6.28;5.88;;;13.80;99.90;;;;;;5085030;28;20126;-88
2023/12/17 00:25:24;;;;;;;6.35;5.95;;;13.80;99.90;;;;;;5084749;28;20147;-88
2023/12/17 00:27:49;;;;;;;6.68;6.28;;;13.80;99.90;;;;;;5086821;28;20128;-86
2023/12/17 00:30:15;;;;;;;6.43;6.03;;;13.80;99.90;;;;;;5085433;28;20656;-89
2023/12/17 00:32:41;;;;;;;6.43;6.03;;;13.80;99.90;;;;;;5065685;28;20040;-87
2023/12/17 00:35:07;;;;;;;6.38;5.97;;;13.90;99.90;;;;;;5067952;28;20059;-88
2023/12/17 00:37:33;;;;;;;6.32;5.93;;;13.90;99.90;;;;;;5069079;28;20508;-88
2023/12/17 00:39:58;;;;;;;6.35;5.95;;;13.90;99.90;;;;;;5087286;28;20048;-88
2023/12/17 00:42:24;;;;;;;6.45;6.05;;;13.80;99.90;;;;;;5085855;28;20043;-89
2023/12/17 00:44:50;;;;;;;6.65;6.25;;;13.80;99.90;;;;;;5065607;28;20044;-87
2023/12/17 00:47:15;;;;;;;6.30;5.90;;;13.90;99.90;;;;;;5069827;28;20059;-87
2023/12/17 00:49:41;;;;;;;6.10;5.70;;;13.80;99.90;;;;;;5083980;28;20039;-87
2023/12/17 00:52:07;;;;;;;6.45;6.05;;;13.80;99.90;;;;;;5086295;28;20049;-88
2023/12/17 00:54:32;;;;;;;6.00;5.60;;;13.80;99.90;;;;;;5084499;28;20101;-87
2023/12/17 00:56:58;;;;;;;6.32;5.93;;;13.80;99.90;;;;;;5070420;28;20051;-88
2023/12/17 00:59:24;;;;;;;6.47;6.07;;;13.90;99.90;;;;;;5085753;28;20118;-86
2023/12/17 01:01:51;;;;;;;6.18;5.78;;;13.80;99.90;;;;;;5085774;28;20093;-88
2023/12/17 01:04:17;;;;;;;6.22;5.82;;;13.80;99.90;;;;;;5070508;28;20055;-88
2023/12/17 01:06:43;;;;;;;6.15;5.75;;;13.80;99.90;;;;;;5070982;28;20562;-87
2023/12/17 01:09:10;;;;;;;6.20;5.80;;;13.80;99.90;;;;;;5070802;28;20565;-89
2023/12/17 01:11:36;;;;;;;6.05;5.65;;;13.80;99.90;;;;;;5070122;28;20473;-88
2023/12/17 01:14:02;;;;;;;6.15;5.75;;;13.80;99.90;;;;;;5084662;28;20409;-87
2023/12/17 01:16:29;;;;;;;6.10;5.70;;;13.80;99.90;;;;;;5085856;28;20542;-87
2023/12/17 01:18:55;;;;;;;6.38;5.97;;;13.80;99.90;;;;;;5082810;28;20036;-87
2023/12/17 01:21:20;;;;;;;6.22;5.82;;;13.90;99.90;;;;;;5070599;28;20043;-87
2023/12/17 01:23:46;;;;;;;6.28;5.88;;;13.80;99.90;;;;;;5073768;28;20044;-89
2023/12/17 01:26:23;;;;;;;5.78;5.43;;;13.80;99.90;;;;;;5087306;28;20082;-89
2023/12/17 01:28:54;;;;;;;5.90;5.53;;;13.80;99.90;;;;;;5063854;28;20044;-87
2023/12/17 01:31:20;;;;;;;5.97;5.60;;;13.80;99.90;;;;;;5066236;28;20098;-86
2023/12/17 01:33:46;;;;;;;6.05;5.65;;;13.80;99.90;;;;;;5086602;28;20055;-87
2023/12/17 01:36:11;;;;;;;6.10;5.70;;;13.80;99.90;;;;;;5069437;28;20040;-88
2023/12/17 01:38:37;;;;;;;6.18;5.78;;;13.80;99.90;;;;;;5087928;28;20101;-88
2023/12/17 01:41:03;;;;;;;6.18;5.78;;;13.80;99.90;;;;;;5071206;28;20417;-87
2023/12/17 01:43:29;;;;;;;5.82;5.47;;;13.80;99.90;;;;;;5067834;28;20039;-87
2023/12/17 01:45:55;;;;;;;5.75;5.40;;;13.80;99.90;;;;;;5069365;28;20101;-88
2023/12/17 01:48:22;;;;;;;6.07;5.68;;;13.80;99.90;;;;;;5087592;28;20074;-88
2023/12/17 01:50:49;;;;;;;6.22;5.82;;;13.80;99.90;;;;;;5067476;28;20056;-87
2023/12/17 01:53:16;;;;;;;6.32;5.93;;;13.80;99.90;;;;;;5065046;28;20071;-87
2023/12/17 01:55:43;;;;;;;5.97;5.57;;;13.80;99.90;;;;;;5068082;28;20047;-85
2023/12/17 01:58:14;;;;;;;6.20;5.80;;;13.80;99.90;;;;;;5084247;28;20044;-87
2023/12/17 02:00:40;;;;;;;5.93;5.55;;;13.70;99.90;;;;;;5068719;28;20044;-87
2023/12/17 02:03:06;;;;;;;6.40;6.00;;;13.80;99.90;;;;;;5068843;28;20237;-87
2023/12/17 02:05:35;;;;;;;6.25;5.85;;;13.70;99.90;;;;;;5085502;28;20036;-88
2023/12/17 02:08:02;;;;;;;5.93;5.57;;;13.80;99.90;;;;;;5059648;28;20121;-87
2023/12/17 02:10:29;;;;;;;6.03;5.65;;;13.80;99.90;;;;;;5085855;28;20467;-87
2023/12/17 02:12:55;;;;;;;5.72;5.40;;;13.80;99.90;;;;;;5082494;28;20027;-86
2023/12/17 02:15:20;;;;;;;5.70;5.38;;;13.80;99.90;;;;;;5064167;28;20455;-87
2023/12/17 02:17:46;;;;;;;5.57;5.25;;;13.80;99.90;;;;;;5085442;28;20112;-87
2023/12/17 02:20:12;;;;;;;5.80;5.45;;;13.80;99.90;;;;;;5084404;28;20082;-87
2023/12/17 02:22:38;;;;;;;5.72;5.40;;;13.80;99.90;;;;;;5083569;28;20043;-88
2023/12/17 02:25:05;;;;;;;5.25;4.95;;;13.80;99.90;;;;;;5083697;28;20787;-86
2023/12/17 02:27:31;;;;;;;5.80;5.50;;;13.80;99.90;;;;;;5081204;28;20047;-86
2023/12/17 02:29:57;;;;;;;5.10;4.80;;;13.80;99.90;;;;;;5069001;28;20050;-88
2023/12/17 02:32:23;;;;;;;5.07;4.78;;;13.80;99.90;;;;;;5084873;28;20040;-88
2023/12/17 02:34:50;;;;;;;5.10;4.80;;;13.80;99.90;;;;;;5067622;28;20130;-87
2023/12/17 02:37:28;;;;;;;5.20;4.90;;;13.80;99.90;;;;;;5100687;28;20167;-87
2023/12/17 02:39:54;;;;;;;5.20;4.90;;;13.80;99.90;;;;;;5085013;28;20050;-88
2023/12/17 02:42:21;;;;;;;5.45;5.15;;;13.90;99.90;;;;;;5064688;28;20039;-87
2023/12/17 02:44:47;;;;;;;5.30;5.00;;;13.90;99.90;;;;;;5084742;28;20074;-88
2023/12/17 02:47:13;;;;;;;5.40;5.10;;;13.90;99.90;;;;;;5065067;28;20888;-88
2023/12/17 02:49:41;;;;;;;5.25;4.95;;;13.80;99.90;;;;;;5081154;28;20054;-85
2023/12/17 02:52:06;;;;;;;5.45;5.05;;;13.80;99.90;;;;;;5083706;28;20126;-85
2023/12/17 02:54:32;;;;;;;5.25;4.95;;;13.80;99.90;;;;;;5082238;28;20050;-87
2023/12/17 02:56:58;;;;;;;5.10;4.80;;;13.80;99.90;;;;;;5083423;28;20090;-85
2023/12/17 02:59:23;;;;;;;4.90;4.60;;;13.80;99.90;;;;;;5082293;28;20039;-87
2023/12/17 03:01:50;;;;;;;4.60;4.30;;;13.80;99.90;;;;;;5084981;28;20047;-88
2023/12/17 03:04:17;;;;;;;4.70;4.40;;;13.80;99.90;;;;;;5081452;28;20044;-88
2023/12/17 03:06:43;;;;;;;4.88;4.57;;;13.70;99.90;;;;;;5067346;28;20099;-87
2023/12/17 03:09:10;;;;;;;4.63;4.32;;;13.80;99.90;;;;;;5085483;28;20492;-87
2023/12/17 03:11:36;;;;;;;4.65;4.35;;;13.70;99.90;;;;;;5085551;28;20126;-87
2023/12/17 03:14:02;;;;;;;5.05;4.75;;;13.80;99.90;;;;;;5065579;28;20131;-88
2023/12/17 03:16:28;;;;;;;5.13;4.82;;;13.80;99.90;;;;;;5070670;28;20042;-87
2023/12/17 03:18:54;;;;;;;5.00;4.70;;;13.80;99.90;;;;;;5068036;28;20043;-88
2023/12/17 03:21:23;;;;;;;4.75;4.45;;;13.70;99.90;;;;;;5085685;28;20420;-87
2023/12/17 03:23:49;;;;;;;5.03;4.72;;;13.80;99.90;;;;;;5066088;28;20050;-87
2023/12/17 03:26:15;;;;;;;5.20;4.90;;;13.80;99.90;;;;;;5086326;28;20050;-88
2023/12/17 03:28:41;;;;;;;5.07;4.78;;;13.80;99.90;;;;;;5083553;28;20497;-88
2023/12/17 03:31:07;;;;;;;5.28;4.97;;;13.70;99.90;;;;;;5064713;28;20050;-87
2023/12/17 03:33:33;;;;;;;4.97;4.68;;;13.80;99.90;;;;;;5082797;28;20046;-89
2023/12/17 03:35:58;;;;;;;4.80;4.50;;;13.70;99.90;;;;;;5065291;28;20044;-88
2023/12/17 03:38:24;;;;;;;4.90;4.60;;;13.70;99.90;;;;;;5065770;28;20075;-87
2023/12/17 03:40:50;;;;;;;5.10;4.80;;;13.70;99.90;;;;;;5084080;28;20059;-87
2023/12/17 03:43:15;;;;;;;4.75;4.45;;;13.70;99.90;;;;;;5082083;28;20517;-88
2023/12/17 03:45:41;;;;;;;5.00;4.70;;;13.70;99.90;;;;;;5085239;28;20039;-87
2023/12/17 03:48:07;;;;;;;4.85;4.55;;;13.70;99.90;;;;;;5083670;28;20111;-88
2023/12/17 03:50:32;;;;;;;4.90;4.60;;;13.70;99.90;;;;;;5069099;28;20039;-88
2023/12/17 03:52:58;;;;;;;4.97;4.68;;;13.70;99.90;;;;;;5082599;28;20374;-88
2023/12/17 03:55:24;;;;;;;5.07;4.78;;;13.70;99.90;;;;;;5065166;28;20773;-88
2023/12/17 03:57:49;;;;;;;5.05;4.75;;;13.70;99.90;;;;;;5067276;28;20048;-88
2023/12/17 04:00:15;;;;;;;5.25;4.95;;;13.70;99.90;;;;;;5083346;28;20395;-89
2023/12/17 04:02:41;;;;;;;5.15;4.85;;;13.70;99.90;;;;;;5078064;28;20492;-88
2023/12/17 04:05:08;;;;;;;5.03;4.72;;;13.70;99.90;;;;;;5084047;28;20047;-89
2023/12/17 04:07:34;;;;;;;5.13;4.82;;;13.70;99.90;;;;;;5061258;28;20040;-89
2023/12/17 04:10:01;;;;;;;4.95;4.65;;;13.60;99.90;;;;;;5086248;28;20183;-88
2023/12/17 04:12:27;;;;;;;5.40;5.10;;;13.70;99.90;;;;;;5067251;28;20047;-87
2023/12/17 04:14:53;;;;;;;5.40;5.10;;;13.70;99.90;;;;;;5084317;28;20047;-88
2023/12/17 04:17:19;;;;;;;5.10;4.80;;;13.70;99.90;;;;;;5085155;28;20042;-87
2023/12/17 04:19:44;;;;;;;5.38;5.07;;;13.70;99.90;;;;;;5085848;28;20043;-87
2023/12/17 04:22:10;;;;;;;5.82;5.53;;;13.60;99.90;;;;;;5082018;28;20047;-87
2023/12/17 04:24:36;;;;;;;5.00;4.70;;;13.60;99.90;;;;;;5085317;28;20047;-86
2023/12/17 04:27:01;;;;;;;4.95;4.65;;;13.60;99.90;;;;;;5084408;28;20047;-88
2023/12/17 04:29:27;;;;;;;5.20;4.90;;;13.60;99.90;;;;;;5071203;28;20047;-87
2023/12/17 04:31:53;;;;;;;5.10;4.80;;;13.60;99.90;;;;;;5063960;28;20627;-87
2023/12/17 04:34:19;;;;;;;5.00;4.70;;;13.60;99.90;;;;;;5085067;28;20082;-87
2023/12/17 04:36:44;;;;;;;5.00;4.70;;;13.60;99.90;;;;;;5084690;28;20172;-87
2023/12/17 04:39:10;;;;;;;5.00;4.70;;;13.60;99.90;;;;;;5087313;28;20065;-88
2023/12/17 04:41:37;;;;;;;4.82;4.53;;;13.60;99.90;;;;;;5082405;28;20040;-88
2023/12/17 04:44:03;;;;;;;4.88;4.57;;;13.60;99.90;;;;;;5085544;28;20051;-87
2023/12/17 04:46:30;;;;;;;4.93;4.63;;;13.60;99.90;;;;;;5084667;28;20373;-87
2023/12/17 04:48:56;;;;;;;4.97;4.68;;;13.60;99.90;;;;;;5068323;28;20047;-88
2023/12/17 04:51:22;;;;;;;5.03;4.72;;;13.60;99.90;;;;;;5065290;28;20501;-87
2023/12/17 04:53:51;;;;;;;4.82;4.53;;;13.60;99.90;;;;;;5083157;28;20048;-88
2023/12/17 04:56:21;;;;;;;4.78;4.47;;;13.60;99.90;;;;;;5067764;28;20044;-87
2023/12/17 04:58:47;;;;;;;4.57;4.28;;;13.60;99.90;;;;;;5062678;28;20052;-87
2023/12/17 05:01:13;;;;;;;4.65;4.35;;;13.60;99.90;;;;;;5085620;28;20212;-87
2023/12/17 05:03:38;;;;;;;4.85;4.55;;;13.50;99.90;;;;;;5082881;28;20048;-86
2023/12/17 05:06:05;;;;;;;5.03;4.72;;;13.50;99.90;;;;;;5095718;28;20040;-87
2023/12/17 05:08:31;;;;;;;4.82;4.53;;;13.60;99.90;;;;;;5074781;28;20054;-88
2023/12/17 05:10:57;;;;;;;4.68;4.38;;;13.50;99.90;;;;;;5095726;28;20071;-87
2023/12/17 05:13:22;;;;;;;4.97;4.68;;;13.50;99.90;;;;;;5096502;28;20036;-87
2023/12/17 05:15:48;;;;;;;4.78;4.47;;;13.50;99.90;;;;;;5078402;28;20071;-86
2023/12/17 05:18:14;;;;;;;4.75;4.45;;;13.50;99.90;;;;;;5070780;28;20044;-86
2023/12/17 05:20:40;;;;;;;4.95;4.65;;;13.50;99.90;;;;;;5096224;28;20067;-87
2023/12/17 05:23:08;;;;;;;4.70;4.40;;;13.50;99.90;;;;;;5075358;28;20043;-86
2023/12/17 05:25:34;;;;;;;5.07;4.78;;;13.50;99.90;;;;;;5087315;28;20051;-88
2023/12/17 05:28:00;;;;;;;4.85;4.55;;;13.50;99.90;;;;;;5083928;28;20043;-87
2023/12/17 05:30:26;;;;;;;4.75;4.45;;;13.50;99.90;;;;;;5066277;28;20044;-87
2023/12/17 05:32:52;;;;;;;4.88;4.57;;;13.50;99.90;;;;;;5066904;28;20131;-89
2023/12/17 05:35:17;;;;;;;4.70;4.40;;;13.50;99.90;;;;;;5066176;28;20055;-87
2023/12/17 05:37:43;;;;;;;4.75;4.45;;;13.50;99.90;;;;;;5087258;28;20457;-87
2023/12/17 05:40:09;;;;;;;4.75;4.45;;;13.50;99.90;;;;;;5073168;28;20160;-88
2023/12/17 05:42:36;;;;;;;5.00;4.70;;;13.40;99.90;;;;;;5066371;28;20040;-88
2023/12/17 05:45:02;;;;;;;4.97;4.68;;;13.50;99.90;;;;;;5070698;28;20083;-88
2023/12/17 05:47:28;;;;;;;4.63;4.32;;;13.40;99.90;;;;;;5085002;28;20058;-88
2023/12/17 05:49:54;;;;;;;4.93;4.63;;;13.50;99.90;;;;;;5083464;27;20054;-89
2023/12/17 05:52:20;;;;;;;4.72;4.43;;;13.40;99.90;;;;;;5085004;28;20036;-87
2023/12/17 05:54:45;;;;;;;4.82;4.53;;;13.40;99.90;;;;;;5068098;28;20139;-87
2023/12/17 05:57:11;;;;;;;4.93;4.63;;;13.40;99.90;;;;;;5083256;28;20043;-87
2023/12/17 05:59:37;;;;;;;5.15;4.85;;;13.40;99.90;;;;;;5068392;28;20055;-89
2023/12/17 06:02:03;;;;;;;5.22;4.93;;;13.40;99.90;;;;;;5086417;27;20043;-87
2023/12/17 06:04:29;;;;;;;4.97;4.68;;;13.40;99.90;;;;;;5064775;28;20066;-87
2023/12/17 06:06:58;;;;;;;5.13;4.82;;;13.40;99.90;;;;;;5085092;28;20062;-87
2023/12/17 06:09:24;;;;;;;5.32;5.03;;;13.40;99.90;;;;;;5084001;28;20050;-87
2023/12/17 06:11:50;;;;;;;5.53;5.22;;;13.40;99.90;;;;;;5085592;28;20047;-88
2023/12/17 06:14:17;;;;;;;5.22;4.93;;;13.30;99.90;;;;;;5065788;28;20071;-88
2023/12/17 06:16:44;;;;;;;5.30;5.00;;;13.30;99.90;;;;;;5068341;28;20044;-89
2023/12/17 06:19:13;;;;;;;5.28;4.97;;;13.30;99.90;;;;;;5067888;28;20574;-87
2023/12/17 06:21:39;;;;;;;5.80;5.50;;;13.30;99.90;;;;;;5082025;28;20047;-89
2023/12/17 06:24:05;;;;;;;5.50;5.20;;;13.30;99.90;;;;;;5065769;28;20043;-88
2023/12/17 06:26:31;;;;;;;5.35;5.05;;;13.30;99.90;;;;;;5084270;28;20043;-87
2023/12/17 06:28:57;;;;;;;6.05;5.68;;;13.30;99.90;;;;;;5086673;28;20096;-88
2023/12/17 06:31:24;;;;;;;5.40;5.10;;;13.20;99.90;;;;;;5065919;28;20070;-88
2023/12/17 06:33:53;;;;;;;5.82;5.50;;;13.30;99.90;;;;;;5085126;28;20051;-87
2023/12/17 06:36:19;;;;;;;5.45;5.15;;;13.30;99.90;;;;;;5084129;28;20044;-87
2023/12/17 06:38:45;;;;;;;5.80;5.50;;;13.20;99.90;;;;;;5067565;28;20039;-87
2023/12/17 06:41:11;;;;;;;6.05;5.68;;;13.20;99.90;;;;;;5086689;28;20129;-88
2023/12/17 06:43:39;;;;;;;5.72;5.43;;;13.30;99.90;;;;;;5065901;28;20043;-88
2023/12/17 06:46:06;;;;;;;5.63;5.32;;;13.20;99.90;;;;;;5065633;28;20039;-87
2023/12/17 06:48:33;;;;;;;5.43;5.13;;;13.20;99.90;;;;;;5084540;28;20602;-88
2023/12/17 06:51:00;;;;;;;5.45;5.15;;;13.30;99.90;;;;;;5067728;28;20531;-88
2023/12/17 06:53:26;;;;;;;5.50;5.20;;;13.20;99.90;;;;;;5085122;28;20081;-89
2023/12/17 06:55:52;;;;;;;5.18;4.88;;;13.20;99.90;;;;;;5085991;28;20717;-86
2023/12/17 06:58:17;;;;;;;5.70;5.38;;;13.30;99.90;;;;;;5064427;28;20059;-87
2023/12/17 07:00:43;;;;;;;5.55;5.25;;;13.30;99.90;;;;;;5070732;28;20051;-88
2023/12/17 07:03:09;;;;;;;5.85;5.53;;;13.20;99.90;;;;;;5066387;28;20451;-90
2023/12/17 07:05:34;;;;;;;5.75;5.43;;;13.20;99.90;;;;;;5069981;28;20043;-88
2023/12/17 07:08:00;;;;;;;6.35;5.95;;;13.20;99.90;;;;;;5084070;28;20497;-88
2023/12/17 07:10:26;;;;;;;5.82;5.50;;;13.20;99.90;;;;;;5085862;28;20040;-87
2023/12/17 07:12:52;;;;;;;6.07;5.70;;;13.20;99.90;;;;;;5064910;28;20109;-87
2023/12/17 07:15:18;;;;;;;5.55;5.25;;;13.20;99.90;;;;;;5082255;28;20047;-89
2023/12/17 07:17:44;;;;;;;6.07;5.72;;;13.20;99.90;;;;;;5086990;28;20051;-88
2023/12/17 07:20:10;;;;;;;5.85;5.53;;;13.20;99.90;;;;;;5070279;28;20130;-90
2023/12/17 07:22:36;;;;;;;5.93;5.60;;;13.10;99.90;;;;;;5070183;28;20437;-87
2023/12/17 07:25:03;;;;;;;5.78;5.47;;;13.10;99.90;;;;;;5085799;28;20051;-89
2023/12/17 07:27:28;;;;;;;5.65;5.35;;;13.20;99.90;;;;;;5070378;28;20049;-89
2023/12/17 07:29:54;;;;;;;5.75;5.45;;;13.20;99.90;;;;;;5088435;28;20040;-88
2023/12/17 07:32:20;;;;;;;5.60;5.30;;;13.10;99.90;;;;;;5085703;28;20048;-90
2023/12/17 07:34:46;;;;;;;5.85;5.53;;;13.10;99.90;;;;;;5084528;28;20396;-89
2023/12/17 07:37:11;;;;;;;5.88;5.55;;;13.10;99.90;;;;;;5085065;28;20047;-89
2023/12/17 07:39:37;;;;;;;5.78;5.45;;;13.20;99.90;;;;;;5069771;28;20032;-88
2023/12/17 07:42:03;;;;;;;5.72;5.40;;;13.10;99.90;;;;;;5085983;28;20119;-87
2023/12/17 07:44:30;;;;;;;5.93;5.57;;;13.10;99.90;;;;;;5066487;28;20055;-89
2023/12/17 07:46:57;;;;;;;6.00;5.65;;;13.10;99.90;;;;;;5087877;28;20044;-87
2023/12/17 07:49:23;;;;;;;5.93;5.57;;;13.10;99.90;;;;;;5085520;28;20051;-90
2023/12/17 07:51:49;;;;;;;6.03;5.68;;;13.10;99.90;;;;;;5076662;28;20039;-89
2023/12/17 07:54:15;;;;;;;5.90;5.57;;;13.10;99.90;;;;;;5079158;28;20047;-89
2023/12/17 07:56:41;;;;;;;6.00;5.65;;;13.10;99.90;;;;;;5081765;28;20100;-88
2023/12/17 07:59:07;;;;;;;5.68;5.35;;;13.10;99.90;;;;;;5100298;28;20448;-89
2023/12/17 08:01:34;;;;;;;6.18;5.80;;;13.10;99.90;;;;;;5102134;28;20100;-88
2023/12/17 08:04:00;;;;;;;6.00;5.65;;;13.10;99.90;;;;;;5085065;28;21648;-86
2023/12/17 08:06:25;;;;;;;5.55;5.25;;;13.10;99.90;;;;;;5079430;28;20074;-89
2023/12/17 08:08:52;;;;;;;5.93;5.57;;;13.10;99.90;;;;;;5097321;28;20111;-89
2023/12/17 08:11:18;;;;;;;5.55;5.25;;;13.10;99.90;;;;;;5096001;28;20048;-88
2023/12/17 08:13:45;;;;;;;5.88;5.55;;;13.00;99.90;;;;;;5090080;28;20074;-90
2023/12/17 08:16:11;;;;;;;5.93;5.57;;;13.10;99.90;;;;;;5069911;28;20123;-89
2023/12/17 08:18:37;;;;;;;5.18;4.88;;;13.10;99.90;;;;;;5081896;28;20051;-90
2023/12/17 08:21:03;;;;;;;5.90;5.57;;;13.10;99.90;;;;;;5089311;28;20052;-88
2023/12/17 08:23:29;;;;;;;5.45;5.15;;;13.10;99.90;;;;;;5071269;28;20035;-90
2023/12/17 08:25:55;;;;;;;5.57;5.28;;;13.10;99.90;;;;;;5090018;28;20055;-91
2023/12/17 08:28:21;;;;;;;5.68;5.38;;;13.10;99.90;;;;;;5088960;28;20557;-89
2023/12/17 08:30:48;;;;;;;5.95;5.63;;;13.20;99.90;;;;;;5069673;28;20052;-89
2023/12/17 08:33:14;;;;;;;5.72;5.43;;;13.10;99.90;;;;;;5073551;28;20051;-88
2023/12/17 08:35:42;;;;;;;5.70;5.40;;;13.10;99.90;;;;;;5084591;28;20044;-90
2023/12/17 08:38:07;;;;;;;5.45;5.15;;;13.10;99.90;;;;;;5086248;28;20043;-90
2023/12/17 08:40:40;;;;;;;5.65;5.35;;;13.20;99.90;;;;;;5071045;28;20040;-91
2023/12/17 08:43:07;;;;;;;5.47;5.18;;;13.20;99.90;;;;;;5094034;28;20035;-89
2023/12/17 08:45:34;;;;;;;5.60;5.30;;;13.20;99.90;;;;;;5069525;28;20104;-89
2023/12/17 08:48:00;;;;;;;5.75;5.45;;;13.20;99.90;;;;;;5090791;28;20043;-87
2023/12/17 08:50:26;;;;;;;5.05;4.75;;;13.20;99.90;;;;;;5083384;28;20086;-89
2023/12/17 08:52:52;;;;;;;5.68;5.35;;;13.20;99.90;;;;;;5085460;28;20055;-87
2023/12/17 08:55:19;;;;;;;5.68;5.38;;;13.20;99.90;;;;;;5069659;28;20055;-92
2023/12/17 08:57:46;;;;;;;5.80;5.47;;;13.30;99.90;;;;;;5089860;28;20055;-87
2023/12/17 09:00:13;;;;;;;5.45;5.15;;;13.30;99.90;;;;;;5088091;28;20055;-89
2023/12/17 09:02:39;;;;;;;5.97;5.63;;;13.30;99.90;;;;;;5065261;28;20516;-88
2023/12/17 09:05:06;;;;;;;5.65;5.35;;;13.30;99.90;;;;;;5081470;28;20043;-88
2023/12/17 09:07:32;;;;;;;5.95;5.63;;;13.30;99.90;;;;;;5068311;28;20532;-89
2023/12/17 09:09:58;;;;;;;6.38;5.97;;;13.30;99.90;;;;;;5070452;28;20108;-87
2023/12/17 09:12:24;;;;;;;5.55;5.25;;;13.30;99.90;;;;;;5086122;28;20039;-89
2023/12/17 09:14:50;;;;;;;5.75;5.43;;;13.30;99.90;;;;;;5070476;28;20051;-89
2023/12/17 09:17:16;;;;;;;5.70;5.40;;;13.30;99.90;;;;;;5068323;28;20078;-92
2023/12/17 09:19:42;;;;;;;5.75;5.43;;;13.30;99.90;;;;;;5068276;28;20058;-87
2023/12/17 09:22:08;;;;;;;5.43;5.13;;;13.30;99.90;;;;;;5071333;28;20054;-88
2023/12/17 09:24:34;;;;;;;5.35;5.05;;;13.40;99.90;;;;;;5070435;28;20078;-87
2023/12/17 09:27:01;;;;;;;5.40;5.10;;;13.40;99.90;;;;;;5070928;28;20039;-88
2023/12/17 09:29:27;;;;;;;5.47;5.18;;;13.40;99.90;;;;;;5069016;28;20050;-88
2023/12/17 09:31:53;;;;;;;5.68;5.38;;;13.40;99.90;;;;;;5082738;28;20043;-86
2023/12/17 09:34:19;;;;;;;5.03;4.72;;;13.40;99.90;;;;;;5068718;28;20050;-89
2023/12/17 09:36:45;;;;;;;5.22;4.93;;;13.40;99.90;;;;;;5071495;28;20634;-89
2023/12/17 09:39:11;;;;;;;5.60;5.30;;;13.40;99.90;;;;;;5072564;28;20126;-90
2023/12/17 09:41:37;;;;;;;5.38;5.07;;;13.40;99.90;;;;;;5067465;28;20040;-87
2023/12/17 09:44:06;;;;;;;5.60;5.30;;;13.50;99.90;;;;;;5083990;28;20039;-88
2023/12/17 09:46:32;;;;;;;5.60;5.30;;;13.40;99.90;;;;;;5081018;28;20051;-89
2023/12/17 09:48:59;;;;;;;5.45;5.15;;;13.40;99.90;;;;;;5069256;28;20036;-88
2023/12/17 09:51:27;;;;;;;5.28;4.97;;;13.40;99.90;;;;;;5084588;28;20043;-89
2023/12/17 09:53:54;;;;;;;5.22;4.93;;;13.40;99.90;;;;;;5086315;28;20043;-88
2023/12/17 09:56:20;;;;;;;5.43;5.13;;;13.40;99.90;;;;;;5064640;28;20047;-87
2023/12/17 09:58:46;;;;;;;5.32;5.03;;;13.30;99.90;;;;;;5083651;28;20080;-87
2023/12/17 10:01:12;;;;;;;5.03;4.72;;;13.40;99.90;;;;;;5079559;28;20051;-89
2023/12/17 10:03:38;;;;;;;5.00;4.70;;;13.50;99.90;;;;;;5063823;28;20749;-88
2023/12/17 10:06:03;;;;;;;5.03;4.72;;;13.50;99.90;;;;;;5064171;28;20044;-88
2023/12/17 10:08:31;;;;;;;5.03;4.72;;;13.40;99.90;;;;;;5066639;28;20100;-87
2023/12/17 10:10:56;;;;;;;4.78;4.47;;;13.50;99.90;;;;;;5083483;28;20062;-87
2023/12/17 10:13:23;;;;;;;4.90;4.60;;;13.40;99.90;;;;;;5081969;28;20040;-88
2023/12/17 10:15:49;;;;;;;4.80;4.50;;;13.40;99.90;;;;;;5067617;28;20409;-88
2023/12/17 10:18:16;;;;;;;4.70;4.40;;;13.40;99.90;;;;;;5065013;28;20037;-88
2023/12/17 10:20:44;;;;;;;4.45;4.22;;;13.40;99.90;;;;;;5067075;28;20047;-88
2023/12/17 10:23:09;;;;;;;4.70;4.40;;;13.40;99.90;;;;;;5081949;28;20050;-86
2023/12/17 10:25:36;;;;;;;4.88;4.57;;;13.40;99.90;;;;;;5080928;28;20036;-88
2023/12/17 10:28:02;;;;;;;4.75;4.45;;;13.50;99.90;;;;;;5062092;28;20047;-86
2023/12/17 10:30:30;;;;;;;4.18;3.97;;;13.50;99.90;;;;;;5082450;28;20396;-87
2023/12/17 10:32:56;;;;;;;4.32;4.10;;;13.40;99.90;;;;;;5083211;28;20492;-88
2023/12/17 10:35:23;;;;;;;4.45;4.20;;;13.40;99.90;;;;;;5078174;28;20079;-86
2023/12/17 10:38:03;;;;;;;4.60;4.30;;;13.40;99.90;;;;;;5081568;28;20048;-87
2023/12/17 10:40:30;;;;;;;4.00;3.80;;;13.50;99.90;;;;;;5064296;28;20043;-88
2023/12/17 10:42:57;;;;;;;4.47;4.25;;;13.50;99.90;;;;;;5078388;28;20756;-87
2023/12/17 10:45:24;;;;;;;4.22;4.03;;;13.40;99.90;;;;;;5059101;28;20437;-91
2023/12/17 10:47:56;;;;;;;4.35;4.13;;;13.40;99.90;;;;;;5060066;28;20051;-89
2023/12/17 10:50:23;;;;;;;4.40;4.20;;;13.40;99.90;;;;;;5083418;28;20053;-92
2023/12/17 10:52:50;;;;;;;4.70;4.40;;;13.50;99.90;;;;;;5064715;28;20043;-90
2023/12/17 10:55:17;;;;;;;4.88;4.57;;;13.50;99.90;;;;;;5067903;28;20044;-89
2023/12/17 10:57:59;;;;;;;4.72;4.43;;;13.50;99.90;;;;;;5066479;28;20044;-88
2023/12/17 11:00:29;;;;;;;4.88;4.57;;;13.50;99.90;;;;;;5071497;28;20504;-94
2023/12/17 11:02:58;;;;;;;4.55;4.28;;;13.40;99.90;;;;;;5068608;28;20511;-90
2023/12/17 11:05:24;;;;;;;4.45;4.20;;;13.40;99.90;;;;;;5082471;28;20077;-89
2023/12/17 11:07:50;;;;;;;4.65;4.35;;;13.40;99.90;;;;;;5067388;28;20043;-89
2023/12/17 11:10:17;;;;;;;8.40;7.95;;;13.30;99.90;;;;;;5068517;28;20051;-89
2023/12/17 11:12:45;;;;;;;4.63;4.32;;;13.40;99.90;;;;;;5064663;28;20040;-89
2023/12/17 11:15:19;;;;;;;4.72;4.43;;;13.30;99.90;;;;;;5084664;28;20495;-89
2023/12/17 11:17:46;;;;;;;4.85;4.55;;;13.30;99.90;;;;;;5082990;28;20085;-93
2023/12/17 11:20:12;;;;;;;4.70;4.40;;;13.30;99.90;;;;;;5067720;28;20703;-88
2023/12/17 11:22:38;;;;;;;4.90;4.60;;;13.40;99.90;;;;;;5069108;28;20039;-88
2023/12/17 11:25:11;;;;;;;5.10;4.80;;;13.30;99.90;;;;;;5089330;28;20047;-92
2023/12/17 11:27:39;;;;;;;5.13;4.82;;;13.30;99.90;;;;;;5072306;28;20116;-90
2023/12/17 11:30:27;;;;;;;5.03;4.72;;;13.30;99.90;;;;;;5070553;28;20127;-89
2023/12/17 11:32:53;;;;;;;5.00;4.70;;;13.40;99.90;;;;;;5071533;28;20043;-87
2023/12/17 11:35:20;;;;;;;5.18;4.88;;;13.40;99.90;;;;;;5068977;28;20121;-89
2023/12/17 11:37:47;;;;;;;5.10;4.80;;;13.40;99.90;;;;;;5069261;28;20047;-87
2023/12/17 11:40:13;;;;;;;5.00;4.70;;;13.30;99.90;;;;;;5065014;28;20032;-86
2023/12/17 11:42:40;;;;;;;5.10;4.80;;;13.30;99.90;;;;;;5086516;28;20048;-87
2023/12/17 11:45:06;;;;;;;5.10;4.80;;;13.30;99.90;;;;;;5068378;28;20051;-87
2023/12/17 11:47:32;;;;;;;5.18;4.88;;;13.30;99.90;;;;;;5069675;28;20619;-88
2023/12/17 11:50:00;;;;;;;5.20;4.90;;;13.40;99.90;;;;;;5070754;28;20040;-89
2023/12/17 11:52:26;;;;;;;5.32;5.03;;;13.30;99.90;;;;;;5083977;28;20048;-89
2023/12/17 11:55:02;;;;;;;5.43;5.13;;;13.30;99.90;;;;;;5068636;28;20386;-91
2023/12/17 11:57:30;;;;;;;5.43;5.13;;;13.30;99.90;;;;;;5086545;28;20043;-90
2023/12/17 11:59:56;;;;;;;5.10;4.80;;;13.30;99.90;;;;;;5069519;28;20127;-90
2023/12/17 12:02:26;;;;;;;5.30;5.00;;;13.30;99.90;;;;;;5069690;28;20048;-85
2023/12/17 12:04:54;;;;;;;5.28;4.97;;;13.30;99.90;;;;;;5080997;28;20047;-87
2023/12/17 12:07:20;;;;;;;4.90;4.60;;;13.30;99.90;;;;;;5087957;28;20093;-90
2023/12/17 12:09:48;;;;;;;5.25;4.95;;;13.30;99.90;;;;;;5065343;28;20435;-88
2023/12/17 12:12:26;;;;;;;5.35;5.05;;;13.30;99.90;;;;;;5069774;28;20104;-88
2023/12/17 12:14:52;;;;;;;5.45;5.15;;;13.30;99.90;;;;;;5068338;28;20051;-87
2023/12/17 12:17:41;;;;;;;5.28;4.97;;;13.40;99.90;;;;;;5086979;28;20039;-89
2023/12/17 12:20:12;;;;;;;5.35;5.05;;;13.40;99.90;;;;;;5070709;28;20135;-90
2023/12/17 12:22:41;;;;;;;5.85;5.45;;;13.40;99.90;;;;;;5105079;27;20051;-90
2023/12/17 12:25:08;;;;;;;5.05;4.75;;;13.40;99.90;;;;;;5073898;28;20071;-88
2023/12/17 12:27:34;;;;;;;5.30;5.00;;;13.40;99.90;;;;;;5084092;28;20039;-90
2023/12/17 12:29:59;;;;;;;4.95;4.65;;;13.40;99.90;;;;;;5088883;28;20521;-88
2023/12/17 12:32:32;;;;;;;5.32;5.03;;;13.40;99.90;;;;;;5089828;28;20044;-89
2023/12/17 12:34:59;;;;;;;5.40;5.10;;;13.30;99.90;;;;;;5090056;28;20119;-88
2023/12/17 12:37:38;;;;;;;5.32;5.03;;;13.30;99.90;;;;;;5085085;28;20051;-91
2023/12/17 12:40:05;;;;;;;5.10;4.80;;;13.30;99.90;;;;;;5087842;28;20039;-92
2023/12/17 12:42:32;;;;;;;5.32;5.03;;;13.40;99.90;;;;;;5071681;28;20051;-91
2023/12/17 12:44:58;;;;;;;5.35;5.05;;;13.30;99.90;;;;;;5072570;28;20047;-89